Time;durP1;ratioP1;P1;durP2;ratioP2;P2;SDS_P1;SDS_P2;PMS_P1;PMS_P2;Temp;Humidity;BMP_temperature;BMP_pressure;BME280_temperature;BME280_humidity;BME280_pressure;Samples;Min_cycle;Max_cycle;Signal;HPM_P1;HPM_P2
2023/01/28 00:00:53;;;;;;;223.40;212.45;;;4.00;99.90;;;;;;5053133;28;20444;-59
2023/01/28 00:03:19;;;;;;;237.15;225.45;;;4.00;99.90;;;;;;5052652;28;20400;-58
2023/01/28 00:05:44;;;;;;;226.80;215.60;;;4.10;99.90;;;;;;5052081;28;20435;-59
2023/01/28 00:08:13;;;;;;;219.17;208.17;;;4.10;99.90;;;;;;5052600;28;20425;-59
2023/01/28 00:10:41;;;;;;;231.35;220.00;;;4.10;99.90;;;;;;5052857;28;20377;-59
2023/01/28 00:13:14;;;;;;;229.63;218.30;;;4.10;99.90;;;;;;5052747;28;20484;-59
2023/01/28 00:15:42;;;;;;;198.75;188.95;;;4.00;99.90;;;;;;5053554;28;20465;-57
2023/01/28 00:18:08;;;;;;;180.65;171.75;;;4.00;99.90;;;;;;5054268;28;20801;-58
2023/01/28 00:20:34;;;;;;;195.07;185.63;;;3.90;99.90;;;;;;5054956;28;20701;-59
2023/01/28 00:23:01;;;;;;;196.95;187.25;;;3.90;99.90;;;;;;5055317;28;20397;-59
2023/01/28 00:25:29;;;;;;;204.60;194.52;;;3.90;99.90;;;;;;5055200;28;20405;-58
2023/01/28 00:27:55;;;;;;;192.18;182.77;;;3.80;99.90;;;;;;5055599;28;20435;-57
2023/01/28 00:30:20;;;;;;;186.15;177.07;;;3.80;99.90;;;;;;5054376;28;20385;-59
2023/01/28 00:32:47;;;;;;;185.45;176.45;;;3.90;99.90;;;;;;5055025;28;20418;-59
2023/01/28 00:35:15;;;;;;;186.25;177.15;;;3.90;99.90;;;;;;5055921;28;20799;-59
2023/01/28 00:37:45;;;;;;;211.70;201.15;;;4.00;99.90;;;;;;5055182;28;20389;-59
2023/01/28 00:40:11;;;;;;;199.32;189.55;;;3.80;99.90;;;;;;5054492;28;20484;-59
2023/01/28 00:42:37;;;;;;;196.10;186.57;;;3.70;99.90;;;;;;5053263;28;20409;-59
2023/01/28 00:45:03;;;;;;;186.23;176.87;;;3.80;99.90;;;;;;5053440;28;20436;-57
2023/01/28 00:47:28;;;;;;;196.27;186.67;;;3.80;99.90;;;;;;5052957;28;20537;-59
2023/01/28 00:49:57;;;;;;;189.32;180.10;;;3.80;99.90;;;;;;5036479;28;23459;-59
2023/01/28 00:52:22;;;;;;;195.23;185.65;;;3.90;99.90;;;;;;5053243;28;20674;-57
2023/01/28 00:54:48;;;;;;;198.20;188.50;;;3.90;99.90;;;;;;5054906;28;20871;-59
2023/01/28 00:57:14;;;;;;;207.67;197.57;;;3.90;99.90;;;;;;5054163;28;20429;-58
2023/01/28 00:59:41;;;;;;;194.57;185.05;;;3.90;99.90;;;;;;5054264;28;20412;-59
2023/01/28 01:02:13;;;;;;;202.57;192.68;;;3.90;99.90;;;;;;5055066;28;20411;-59
2023/01/28 01:04:40;;;;;;;201.45;191.73;;;3.90;99.90;;;;;;5055141;28;20408;-59
2023/01/28 01:07:08;;;;;;;204.70;194.63;;;3.90;99.90;;;;;;5054036;28;20385;-59
2023/01/28 01:09:33;;;;;;;219.82;209.20;;;3.90;99.90;;;;;;5053897;28;20684;-59
2023/01/28 01:12:00;;;;;;;222.20;211.43;;;3.90;99.90;;;;;;5053581;28;20813;-59
2023/01/28 01:14:26;;;;;;;220.63;209.77;;;3.90;99.90;;;;;;5054480;28;20404;-59
2023/01/28 01:16:51;;;;;;;207.02;196.93;;;3.90;99.90;;;;;;5054646;28;20408;-59
2023/01/28 01:19:17;;;;;;;217.93;207.20;;;3.90;99.90;;;;;;5053597;28;20409;-60
2023/01/28 01:21:42;;;;;;;228.60;217.27;;;3.80;99.90;;;;;;5054671;28;20638;-60
2023/01/28 01:24:08;;;;;;;223.30;212.38;;;3.80;99.90;;;;;;5053298;28;20401;-60
2023/01/28 01:26:33;;;;;;;220.70;209.80;;;3.70;99.90;;;;;;5057016;28;20401;-60
2023/01/28 01:28:59;;;;;;;220.63;209.83;;;3.80;99.90;;;;;;5054793;28;20392;-59
2023/01/28 01:31:25;;;;;;;204.63;194.60;;;3.80;99.90;;;;;;5055136;28;20745;-59
2023/01/28 01:33:52;;;;;;;206.07;196.07;;;3.90;99.90;;;;;;5054699;28;20385;-59
2023/01/28 01:36:20;;;;;;;200.20;190.30;;;3.90;99.90;;;;;;5053538;28;20420;-59
2023/01/28 01:38:46;;;;;;;216.98;206.50;;;3.90;99.90;;;;;;5053832;28;20397;-60
2023/01/28 01:41:28;;;;;;;245.55;233.38;;;3.90;99.90;;;;;;5054281;28;20389;-59
2023/01/28 01:43:55;;;;;;;223.25;212.30;;;3.80;99.90;;;;;;5053619;28;20398;-59
2023/01/28 01:46:31;;;;;;;225.80;214.55;;;3.90;99.90;;;;;;5053144;28;20454;-59
2023/01/28 01:49:05;;;;;;;248.05;235.73;;;3.90;99.90;;;;;;5053715;28;20724;-59
2023/01/28 01:51:33;;;;;;;224.60;213.32;;;3.80;99.90;;;;;;5038146;28;20388;-59
2023/01/28 01:53:59;;;;;;;207.25;196.98;;;3.70;99.90;;;;;;5038771;28;20805;-60
2023/01/28 01:56:31;;;;;;;195.07;185.43;;;3.60;99.90;;;;;;5038719;28;20764;-56
2023/01/28 01:58:58;;;;;;;185.15;176.13;;;3.50;99.90;;;;;;5040402;28;20678;-59
2023/01/28 02:01:28;;;;;;;181.25;172.35;;;3.50;99.90;;;;;;5040858;28;20389;-60
2023/01/28 02:04:16;;;;;;;184.95;175.77;;;3.50;99.90;;;;;;5040268;28;20773;-58
2023/01/28 02:06:42;;;;;;;181.07;172.23;;;3.50;99.90;;;;;;5040659;28;20397;-60
2023/01/28 02:09:23;;;;;;;191.95;182.55;;;3.50;99.90;;;;;;5058977;28;20392;-59
2023/01/28 02:11:50;;;;;;;192.65;183.25;;;3.60;99.90;;;;;;5040588;28;20446;-59
2023/01/28 02:14:16;;;;;;;188.83;179.47;;;3.60;99.90;;;;;;5038682;28;20382;-57
2023/01/28 02:16:42;;;;;;;186.90;177.82;;;3.70;99.90;;;;;;5055328;28;20447;-59
2023/01/28 02:19:08;;;;;;;188.50;179.10;;;3.70;99.90;;;;;;5038470;28;20596;-59
2023/01/28 02:21:53;;;;;;;191.57;182.25;;;3.70;99.90;;;;;;5038395;28;20382;-59
2023/01/28 02:24:56;;;;;;;188.17;178.87;;;3.70;99.90;;;;;;5037278;28;20484;-59
2023/01/28 02:27:35;;;;;;;187.45;178.25;;;3.70;99.90;;;;;;5037811;28;20374;-59
2023/01/28 02:30:27;;;;;;;187.10;177.90;;;3.70;99.90;;;;;;5037755;28;20816;-59
2023/01/28 02:32:59;;;;;;;201.07;191.30;;;3.70;99.90;;;;;;5031026;28;20389;-59
2023/01/28 02:35:36;;;;;;;196.73;187.15;;;3.70;99.90;;;;;;5038163;28;20809;-58
2023/01/28 02:38:08;;;;;;;199.35;189.65;;;3.70;99.90;;;;;;5037134;28;20396;-59
2023/01/28 02:41:00;;;;;;;195.63;186.00;;;3.70;99.90;;;;;;5038336;28;20778;-58
2023/01/28 02:43:32;;;;;;;195.80;186.25;;;3.70;99.90;;;;;;5055329;28;20412;-59
2023/01/28 02:48:42;;;;;;;225.63;214.63;;;3.50;99.90;;;;;;5056150;28;20525;-59
2023/01/28 02:51:24;;;;;;;210.25;199.90;;;3.60;99.90;;;;;;5055492;28;20488;-59
2023/01/28 02:54:10;;;;;;;221.15;210.15;;;3.50;99.90;;;;;;5055632;28;20613;-59
2023/01/28 02:56:51;;;;;;;226.40;215.25;;;3.50;99.90;;;;;;5055515;28;20447;-59
2023/01/28 02:59:29;;;;;;;233.13;221.68;;;3.50;99.90;;;;;;5055751;28;20392;-59
2023/01/28 03:02:01;;;;;;;246.15;234.10;;;3.50;99.90;;;;;;5055488;28;20476;-57
2023/01/28 03:04:38;;;;;;;242.65;230.50;;;3.50;99.90;;;;;;5055895;28;20805;-59
2023/01/28 03:07:07;;;;;;;255.95;243.00;;;3.50;99.90;;;;;;5055560;28;20408;-59
2023/01/28 03:09:34;;;;;;;250.27;237.88;;;3.40;99.90;;;;;;5055016;28;20385;-59
2023/01/28 03:38:17;;;;;;;229.70;218.38;;;3.20;99.90;;;;;;5052351;28;20454;-59
2023/01/28 03:40:59;;;;;;;237.07;225.33;;;3.20;99.90;;;;;;5052082;28;20377;-59
2023/01/28 03:43:24;;;;;;;222.98;211.82;;;3.30;99.90;;;;;;5051629;28;20389;-59
2023/01/28 03:45:51;;;;;;;240.43;228.50;;;3.30;99.90;;;;;;5052059;28;20463;-58
2023/01/28 03:48:18;;;;;;;231.02;219.63;;;3.30;99.90;;;;;;5052231;28;20467;-59
2023/01/28 03:50:45;;;;;;;235.18;223.52;;;3.30;99.90;;;;;;5053825;28;20773;-59
2023/01/28 03:53:14;;;;;;;248.30;235.88;;;3.20;99.90;;;;;;5056567;28;20813;-59
2023/01/28 03:55:44;;;;;;;253.20;240.30;;;3.20;99.90;;;;;;5055478;28;20730;-59
2023/01/28 03:58:10;;;;;;;253.02;240.20;;;3.20;99.90;;;;;;5055227;28;20745;-59
2023/01/28 04:00:40;;;;;;;246.20;233.90;;;3.20;99.90;;;;;;5053699;28;20503;-60
2023/01/28 04:03:18;;;;;;;246.52;234.13;;;3.30;99.90;;;;;;5053058;28;20384;-59
2023/01/28 04:06:03;;;;;;;240.05;227.95;;;3.20;99.90;;;;;;5053597;28;20435;-59
2023/01/28 04:08:29;;;;;;;254.80;242.10;;;3.20;99.90;;;;;;5053535;28;20520;-57
2023/01/28 04:10:55;;;;;;;256.58;243.77;;;3.20;99.90;;;;;;5053804;28;20737;-59
2023/01/28 04:13:20;;;;;;;239.07;227.07;;;3.20;99.90;;;;;;5054578;28;20455;-59
2023/01/28 04:15:46;;;;;;;245.53;233.23;;;3.20;99.90;;;;;;5053756;28;20447;-59
2023/01/28 04:18:12;;;;;;;233.57;221.97;;;3.20;99.90;;;;;;5052716;28;20954;-59
2023/01/28 04:20:38;;;;;;;233.50;221.97;;;3.20;99.90;;;;;;5052513;28;20661;-59
2023/01/28 04:23:04;;;;;;;239.30;227.40;;;3.20;99.90;;;;;;5052845;28;20497;-59
2023/01/28 04:25:31;;;;;;;241.40;229.48;;;3.30;99.90;;;;;;5053102;28;20731;-59
2023/01/28 04:27:57;;;;;;;253.85;241.13;;;3.30;99.90;;;;;;5052622;28;20718;-59
2023/01/28 04:30:22;;;;;;;238.60;226.75;;;3.30;99.90;;;;;;5054782;28;20595;-60
2023/01/28 04:32:51;;;;;;;242.77;230.48;;;3.30;99.90;;;;;;5053626;28;20378;-59
2023/01/28 04:35:17;;;;;;;234.38;222.65;;;3.20;99.90;;;;;;5054790;28;20415;-59
2023/01/28 04:37:44;;;;;;;222.40;211.23;;;3.20;99.90;;;;;;5055141;28;20405;-59
2023/01/28 04:40:11;;;;;;;214.60;203.73;;;3.20;99.90;;;;;;5055692;28;20636;-59
2023/01/28 04:42:37;;;;;;;211.88;201.27;;;3.20;99.90;;;;;;5055840;28;20412;-58
2023/01/28 04:45:04;;;;;;;191.38;181.88;;;3.10;99.90;;;;;;5055840;28;20416;-59
2023/01/28 04:47:29;;;;;;;201.10;191.07;;;3.10;99.90;;;;;;5054392;28;20459;-59
2023/01/28 04:50:04;;;;;;;197.13;187.43;;;3.10;99.90;;;;;;5056594;28;20390;-59
2023/01/28 04:52:30;;;;;;;202.13;192.17;;;3.20;99.90;;;;;;5053564;28;20443;-59
2023/01/28 04:54:55;;;;;;;204.20;194.23;;;3.20;99.90;;;;;;5053271;28;20812;-59
2023/01/28 04:57:21;;;;;;;199.65;189.80;;;3.20;99.90;;;;;;5053556;28;20389;-59
2023/01/28 04:59:46;;;;;;;214.35;203.82;;;3.20;99.90;;;;;;5051481;28;20880;-58
2023/01/28 05:02:12;;;;;;;210.50;200.10;;;3.30;99.90;;;;;;5054278;28;20419;-59
2023/01/28 05:04:37;;;;;;;226.77;215.57;;;3.30;99.90;;;;;;5055607;28;20743;-59
2023/01/28 05:07:03;;;;;;;206.82;196.63;;;3.30;99.90;;;;;;5055818;28;20415;-59
2023/01/28 05:09:28;;;;;;;221.00;210.03;;;3.20;99.90;;;;;;5056036;28;20715;-59
2023/01/28 05:11:54;;;;;;;230.37;219.13;;;3.20;99.90;;;;;;5056542;28;20412;-59
2023/01/28 05:14:20;;;;;;;242.32;230.55;;;3.10;99.90;;;;;;5056519;28;20417;-59
2023/01/28 05:16:45;;;;;;;240.40;228.43;;;3.20;99.90;;;;;;5057192;28;20451;-57
2023/01/28 05:19:11;;;;;;;232.90;221.33;;;3.20;99.90;;;;;;5055754;28;20420;-57
2023/01/28 05:21:36;;;;;;;237.30;225.57;;;3.20;99.90;;;;;;5055318;28;20876;-59
2023/01/28 05:24:02;;;;;;;253.93;241.33;;;3.10;99.90;;;;;;5056101;28;20447;-62
2023/01/28 05:26:27;;;;;;;261.95;248.85;;;3.10;99.90;;;;;;5055319;28;20670;-59
2023/01/28 05:28:53;;;;;;;279.43;265.10;;;3.10;99.90;;;;;;5055683;28;20671;-59
2023/01/28 05:31:18;;;;;;;294.03;278.97;;;3.00;99.90;;;;;;5055122;28;20386;-59
2023/01/28 05:33:44;;;;;;;292.13;277.15;;;3.00;99.90;;;;;;5055985;28;20432;-58
2023/01/28 05:36:10;;;;;;;309.27;293.27;;;3.10;99.90;;;;;;5055481;28;20608;-59
2023/01/28 05:38:35;;;;;;;308.67;292.63;;;3.00;99.90;;;;;;5055465;28;20401;-60
2023/01/28 05:41:01;;;;;;;323.23;306.53;;;3.00;99.90;;;;;;5054575;28;20396;-59
2023/01/28 05:43:27;;;;;;;334.90;317.42;;;3.00;99.90;;;;;;5054338;28;21133;-58
2023/01/28 05:45:53;;;;;;;327.95;310.75;;;2.90;99.90;;;;;;5053900;28;20484;-60
2023/01/28 05:48:18;;;;;;;336.93;318.93;;;2.90;99.90;;;;;;5056522;28;20496;-59
2023/01/28 05:50:46;;;;;;;376.23;356.07;;;2.90;99.90;;;;;;5055974;28;20385;-59
2023/01/28 05:53:12;;;;;;;360.73;341.03;;;2.90;99.90;;;;;;5054834;28;20801;-59
2023/01/28 05:55:37;;;;;;;360.73;341.57;;;2.90;99.90;;;;;;5050887;28;20385;-59
2023/01/28 05:58:03;;;;;;;361.10;341.80;;;2.90;99.90;;;;;;5048846;28;20393;-59
2023/01/28 06:00:28;;;;;;;362.65;343.10;;;2.80;99.90;;;;;;5051276;28;20385;-59
2023/01/28 06:02:54;;;;;;;372.83;352.80;;;2.80;99.90;;;;;;5048654;28;20390;-59
2023/01/28 06:05:20;;;;;;;391.57;370.20;;;2.80;99.90;;;;;;5048332;28;20709;-59
2023/01/28 06:07:47;;;;;;;374.90;354.48;;;2.80;99.90;;;;;;5048836;28;20412;-59
2023/01/28 06:10:13;;;;;;;384.88;363.70;;;2.80;99.90;;;;;;5049968;28;20491;-59
2023/01/28 06:12:39;;;;;;;393.50;371.60;;;2.80;99.90;;;;;;5049974;28;20488;-62
2023/01/28 06:15:05;;;;;;;374.58;354.23;;;2.90;99.90;;;;;;5052949;28;20819;-59
2023/01/28 06:17:31;;;;;;;355.02;336.00;;;2.80;99.90;;;;;;5051516;28;20381;-59
2023/01/28 06:19:56;;;;;;;362.53;343.03;;;2.80;99.90;;;;;;5051211;28;20396;-59
2023/01/28 06:22:22;;;;;;;361.30;341.67;;;2.80;99.90;;;;;;5050728;28;20528;-59
2023/01/28 06:24:48;;;;;;;359.85;340.20;;;2.70;99.90;;;;;;5051876;28;20508;-58
2023/01/28 06:27:13;;;;;;;370.07;349.73;;;2.60;99.90;;;;;;5051559;28;20390;-59
2023/01/28 06:29:39;;;;;;;366.60;346.47;;;2.60;99.90;;;;;;5052231;28;20693;-59
2023/01/28 06:32:05;;;;;;;394.98;373.05;;;2.60;99.90;;;;;;5053988;28;20394;-59
2023/01/28 06:34:30;;;;;;;383.52;362.30;;;2.60;99.90;;;;;;5054886;28;20400;-59
2023/01/28 06:36:56;;;;;;;395.80;373.92;;;2.40;99.90;;;;;;5054332;28;20397;-60
2023/01/28 06:39:22;;;;;;;415.02;391.80;;;2.30;99.90;;;;;;5057015;28;20392;-59
2023/01/28 06:41:48;;;;;;;400.48;378.10;;;2.30;99.90;;;;;;5056425;28;20393;-59
2023/01/28 06:44:14;;;;;;;391.67;369.83;;;2.40;99.90;;;;;;5056049;28;20377;-60
2023/01/28 06:46:40;;;;;;;412.80;389.48;;;2.40;99.90;;;;;;5054804;28;20429;-59
2023/01/28 06:49:05;;;;;;;418.13;394.53;;;2.30;99.90;;;;;;5054182;28;20449;-58
2023/01/28 06:51:31;;;;;;;421.37;397.60;;;2.20;99.90;;;;;;5050935;28;20409;-60
2023/01/28 06:53:57;;;;;;;419.55;396.20;;;2.20;99.90;;;;;;5049668;28;20508;-60
2023/01/28 06:56:22;;;;;;;405.02;382.13;;;2.20;99.90;;;;;;5048693;28;20429;-58
2023/01/28 06:58:48;;;;;;;409.45;386.70;;;2.20;99.90;;;;;;5050945;28;20447;-59
2023/01/28 07:01:13;;;;;;;401.30;379.17;;;2.30;99.90;;;;;;5052203;28;20745;-57
2023/01/28 07:03:39;;;;;;;393.13;371.20;;;2.20;99.90;;;;;;5051100;28;20385;-59
2023/01/28 07:06:05;;;;;;;381.98;360.83;;;2.20;99.90;;;;;;5048845;28;20390;-59
2023/01/28 07:08:31;;;;;;;395.70;373.85;;;2.20;99.90;;;;;;5048550;28;20396;-59
2023/01/28 07:10:56;;;;;;;388.85;367.35;;;2.20;99.90;;;;;;5050228;28;20425;-59
2023/01/28 07:13:22;;;;;;;411.02;388.23;;;2.10;99.90;;;;;;5048608;28;20386;-59
2023/01/28 07:15:48;;;;;;;410.02;386.85;;;2.10;99.90;;;;;;5049293;28;20385;-59
2023/01/28 07:18:14;;;;;;;409.15;385.77;;;2.10;99.90;;;;;;5050998;28;20389;-59
2023/01/28 07:20:40;;;;;;;417.58;394.13;;;2.10;99.90;;;;;;5051890;28;20488;-59
2023/01/28 07:23:06;;;;;;;414.48;391.65;;;2.10;99.90;;;;;;5049736;28;20405;-59
2023/01/28 07:25:31;;;;;;;432.33;407.97;;;2.10;99.90;;;;;;5050303;28;20409;-59
2023/01/28 07:27:57;;;;;;;422.50;398.67;;;2.10;99.90;;;;;;5051853;28;20492;-59
2023/01/28 07:30:23;;;;;;;441.85;416.75;;;2.10;99.90;;;;;;5048270;28;20592;-59
2023/01/28 07:32:53;;;;;;;449.40;423.70;;;2.10;99.90;;;;;;5049065;28;20756;-58
2023/01/28 07:35:19;;;;;;;439.97;414.67;;;2.20;99.90;;;;;;5067133;28;20709;-59
2023/01/28 07:37:52;;;;;;;445.27;420.10;;;2.10;99.90;;;;;;5052004;28;21088;-61
2023/01/28 07:40:18;;;;;;;436.83;411.77;;;2.10;99.90;;;;;;5049920;28;20405;-59
2023/01/28 07:42:44;;;;;;;442.90;417.50;;;2.10;99.90;;;;;;5047466;28;20475;-59
2023/01/28 07:45:10;;;;;;;433.27;408.50;;;2.10;99.90;;;;;;5047059;28;20413;-59
2023/01/28 07:47:35;;;;;;;455.50;429.33;;;2.00;99.90;;;;;;5046653;28;20796;-59
2023/01/28 07:50:01;;;;;;;479.83;451.90;;;2.00;99.90;;;;;;5047611;28;20832;-59
2023/01/28 07:52:27;;;;;;;502.73;472.90;;;2.00;99.90;;;;;;5047068;28;20425;-58
2023/01/28 07:54:53;;;;;;;480.83;452.00;;;2.00;99.90;;;;;;5046945;28;20410;-59
2023/01/28 07:57:22;;;;;;;511.33;481.35;;;1.90;99.90;;;;;;5049819;28;20876;-59
2023/01/28 07:59:50;;;;;;;508.38;478.70;;;1.90;99.90;;;;;;5048245;28;20381;-59
2023/01/28 08:02:17;;;;;;;524.08;493.52;;;1.80;99.90;;;;;;5048733;28;20390;-59
2023/01/28 08:04:43;;;;;;;547.92;515.75;;;1.70;99.90;;;;;;5047021;28;20508;-59
2023/01/28 08:07:09;;;;;;;541.08;509.33;;;1.70;99.90;;;;;;5045886;28;20779;-59
2023/01/28 08:09:34;;;;;;;544.40;511.23;;;1.80;99.90;;;;;;5044749;28;21004;-59
2023/01/28 08:12:03;;;;;;;541.00;508.52;;;1.80;99.90;;;;;;5047132;28;20533;-59
2023/01/28 08:14:29;;;;;;;535.38;503.33;;;1.80;99.90;;;;;;5044688;28;20373;-60
2023/01/28 08:16:56;;;;;;;544.60;512.00;;;1.80;99.90;;;;;;5043230;28;20390;-57
2023/01/28 08:19:21;;;;;;;534.03;502.15;;;1.80;99.90;;;;;;5044981;28;20563;-60
2023/01/28 08:21:47;;;;;;;547.55;514.47;;;1.80;99.90;;;;;;5043606;28;20675;-60
2023/01/28 08:24:13;;;;;;;546.20;514.17;;;1.80;99.90;;;;;;5042059;28;20703;-60
2023/01/28 08:26:39;;;;;;;553.17;520.58;;;1.70;99.90;;;;;;5039931;28;20377;-60
2023/01/28 08:29:05;;;;;;;561.42;527.88;;;1.80;99.90;;;;;;5040915;28;20389;-60
2023/01/28 08:31:30;;;;;;;549.77;517.40;;;1.70;99.90;;;;;;5039571;28;20455;-60
2023/01/28 08:33:56;;;;;;;550.57;518.10;;;1.70;99.90;;;;;;5041429;28;20884;-60
2023/01/28 08:36:22;;;;;;;553.67;520.53;;;1.70;99.90;;;;;;5040725;28;20389;-60
2023/01/28 08:38:54;;;;;;;554.33;521.20;;;1.70;99.90;;;;;;5045221;28;20397;-60
2023/01/28 08:41:23;;;;;;;553.20;520.20;;;1.80;99.90;;;;;;5044857;28;20704;-60
2023/01/28 08:43:49;;;;;;;549.92;517.60;;;1.80;99.90;;;;;;5044491;28;20401;-58
2023/01/28 08:46:15;;;;;;;534.07;502.60;;;1.80;99.90;;;;;;5044508;28;20405;-60
2023/01/28 08:48:41;;;;;;;544.85;512.50;;;1.80;99.90;;;;;;5041123;28;20729;-59
2023/01/28 08:51:06;;;;;;;539.63;508.27;;;1.80;99.90;;;;;;5040527;28;20390;-60
2023/01/28 08:53:32;;;;;;;538.80;507.05;;;1.80;99.90;;;;;;5040254;28;20488;-59
2023/01/28 08:55:58;;;;;;;524.30;493.90;;;1.80;99.90;;;;;;5040957;28;20690;-59
2023/01/28 08:58:23;;;;;;;514.80;484.47;;;1.80;99.90;;;;;;5040257;28;20455;-59
2023/01/28 09:00:49;;;;;;;518.30;488.00;;;1.80;99.90;;;;;;5039413;28;20713;-59
2023/01/28 09:03:17;;;;;;;503.50;474.05;;;1.80;99.90;;;;;;5040913;28;20393;-59
2023/01/28 09:05:42;;;;;;;512.83;482.75;;;1.80;99.90;;;;;;5043374;28;20397;-59
2023/01/28 09:08:13;;;;;;;505.10;475.40;;;1.80;99.90;;;;;;5041626;28;20419;-60
2023/01/28 09:10:40;;;;;;;501.30;472.38;;;1.80;99.90;;;;;;5042599;28;20400;-58
2023/01/28 09:13:08;;;;;;;456.13;430.25;;;1.90;99.90;;;;;;5044532;28;20768;-60
2023/01/28 09:15:34;;;;;;;437.25;412.17;;;1.80;99.90;;;;;;5043301;28;20509;-59
2023/01/28 09:18:00;;;;;;;444.87;420.03;;;1.80;99.90;;;;;;5041498;28;20511;-60
2023/01/28 09:20:26;;;;;;;429.40;405.73;;;1.90;99.90;;;;;;5040741;28;20386;-60
2023/01/28 09:22:52;;;;;;;425.90;402.27;;;1.90;99.90;;;;;;5043742;28;20812;-60
2023/01/28 09:25:17;;;;;;;409.55;386.98;;;2.00;99.90;;;;;;5039627;28;20520;-59
2023/01/28 09:27:43;;;;;;;386.17;365.33;;;2.00;99.90;;;;;;5036125;28;20884;-58
2023/01/28 09:30:10;;;;;;;377.07;357.17;;;2.10;99.90;;;;;;5033756;28;20386;-58
2023/01/28 09:32:35;;;;;;;362.35;343.30;;;2.20;99.90;;;;;;5032339;28;20380;-60
2023/01/28 09:35:01;;;;;;;400.20;378.38;;;2.50;99.90;;;;;;5037542;28;20553;-60
2023/01/28 09:37:27;;;;;;;320.27;303.83;;;3.00;99.90;;;;;;5037683;28;20475;-61
2023/01/28 09:39:53;;;;;;;225.83;214.73;;;3.70;99.90;;;;;;5037906;28;20678;-60
2023/01/28 09:42:27;;;;;;;297.10;282.33;;;4.50;99.90;;;;;;5040899;28;20638;-60
2023/01/28 09:45:15;;;;;;;378.73;359.40;;;5.60;99.90;;;;;;5041827;28;20820;-61
2023/01/28 09:47:49;;;;;;;331.95;315.15;;;6.30;99.90;;;;;;5047206;28;20404;-60
2023/01/28 09:50:37;;;;;;;261.75;248.60;;;6.20;99.90;;;;;;5043496;28;20413;-61
2023/01/28 09:53:28;;;;;;;312.75;296.95;;;5.90;99.90;;;;;;5042273;28;20389;-60
2023/01/28 09:56:07;;;;;;;349.90;332.20;;;5.50;99.90;;;;;;5042000;28;20398;-60
2023/01/28 09:58:33;;;;;;;361.70;343.30;;;5.20;99.90;;;;;;5042008;28;20954;-60
2023/01/28 10:01:29;;;;;;;340.60;323.33;;;5.20;99.90;;;;;;5042479;28;20984;-61
2023/01/28 10:04:24;;;;;;;388.52;367.98;;;4.90;99.90;;;;;;5043434;28;20882;-60
2023/01/28 10:07:08;;;;;;;373.35;353.73;;;4.70;99.90;;;;;;5044606;28;20820;-60
2023/01/28 10:10:18;;;;;;;409.25;388.10;;;4.40;99.90;;;;;;5043326;28;20386;-60
2023/01/28 10:12:57;;;;;;;389.02;368.67;;;4.10;99.90;;;;;;4966667;28;20394;-59
2023/01/28 10:15:46;;;;;;;374.87;355.20;;;4.30;99.90;;;;;;5039447;28;20656;-60
2023/01/28 10:18:12;;;;;;;374.80;355.52;;;4.30;99.90;;;;;;5043250;28;20385;-60
2023/01/28 10:20:54;;;;;;;359.75;341.38;;;4.20;99.90;;;;;;5045137;28;20427;-60
2023/01/28 10:24:03;;;;;;;329.50;312.52;;;3.90;99.90;;;;;;5042806;28;20645;-60
2023/01/28 10:26:41;;;;;;;288.20;273.58;;;3.90;99.90;;;;;;5028822;28;20406;-60
2023/01/28 10:29:48;;;;;;;285.15;270.95;;;3.70;99.90;;;;;;5023635;28;20652;-59
2023/01/28 10:32:33;;;;;;;285.60;271.23;;;3.80;99.90;;;;;;4935941;28;20401;-58
2023/01/28 10:35:02;;;;;;;273.63;259.97;;;4.00;99.90;;;;;;4966534;28;20522;-58
2023/01/28 10:37:34;;;;;;;277.90;263.80;;;4.00;99.90;;;;;;5005663;28;20402;-60
2023/01/28 10:40:02;;;;;;;291.02;276.48;;;4.10;99.90;;;;;;5023911;28;20381;-60
2023/01/28 10:42:37;;;;;;;276.52;262.85;;;4.20;99.90;;;;;;5025462;28;20383;-59
2023/01/28 10:45:20;;;;;;;265.60;252.40;;;4.00;99.90;;;;;;5023998;28;20407;-61
2023/01/28 10:48:02;;;;;;;281.70;267.35;;;4.20;99.90;;;;;;5025667;28;20795;-61
2023/01/28 10:50:30;;;;;;;301.73;286.35;;;4.20;99.90;;;;;;5025037;28;20473;-60
2023/01/28 10:53:02;;;;;;;258.10;245.00;;;4.10;99.90;;;;;;5026114;28;20677;-59
2023/01/28 10:55:56;;;;;;;249.88;237.50;;;3.80;99.90;;;;;;5027494;28;20383;-60
2023/01/28 10:58:29;;;;;;;243.80;231.60;;;3.30;99.90;;;;;;5019849;28;21002;-60
2023/01/28 11:01:07;;;;;;;263.67;250.43;;;3.30;99.90;;;;;;5030768;28;20437;-59
2023/01/28 11:03:34;;;;;;;268.03;254.50;;;3.30;99.90;;;;;;5029569;28;20394;-60
2023/01/28 11:06:02;;;;;;;332.23;315.35;;;3.10;99.90;;;;;;5029225;28;20529;-60
2023/01/28 11:08:31;;;;;;;359.30;340.42;;;3.10;99.90;;;;;;5028551;28;20406;-58
2023/01/28 11:10:59;;;;;;;390.85;370.23;;;2.90;99.90;;;;;;5028828;28;20395;-58
2023/01/28 11:13:28;;;;;;;412.40;390.20;;;2.90;99.90;;;;;;5029025;28;20383;-59
2023/01/28 11:16:05;;;;;;;384.73;364.08;;;3.00;99.90;;;;;;5029246;28;20399;-60
2023/01/28 11:18:37;;;;;;;366.85;347.48;;;3.10;99.90;;;;;;5026954;28;20387;-60
2023/01/28 11:21:06;;;;;;;347.23;329.13;;;3.20;99.90;;;;;;5028341;28;20679;-60
2023/01/28 11:23:56;;;;;;;339.25;321.55;;;3.30;99.90;;;;;;5028343;28;20901;-60
2023/01/28 11:26:31;;;;;;;275.80;261.73;;;3.50;99.90;;;;;;5028031;28;20455;-58
2023/01/28 11:28:57;;;;;;;276.15;262.13;;;3.60;99.90;;;;;;5009679;28;20493;-60
2023/01/28 11:31:24;;;;;;;256.20;243.40;;;3.80;99.90;;;;;;5020321;28;20398;-60
2023/01/28 11:34:01;;;;;;;276.10;262.27;;;3.60;99.90;;;;;;5033705;28;20455;-61
2023/01/28 11:36:29;;;;;;;266.20;252.55;;;3.60;99.90;;;;;;5046561;28;20407;-60
2023/01/28 11:39:13;;;;;;;244.70;232.40;;;3.90;99.90;;;;;;5045017;28;20401;-60
2023/01/28 11:41:39;;;;;;;274.33;260.13;;;4.20;99.90;;;;;;5063115;28;21157;-58
2023/01/28 11:44:25;;;;;;;285.33;270.85;;;4.50;99.90;;;;;;5066612;28;20495;-61
2023/01/28 11:47:16;;;;;;;278.13;263.87;;;4.50;99.90;;;;;;5066073;28;20494;-60
2023/01/28 11:49:50;;;;;;;266.88;253.25;;;4.10;99.90;;;;;;5068089;28;20392;-60
2023/01/28 11:52:54;;;;;;;269.05;255.20;;;4.20;99.90;;;;;;5067349;28;20528;-60
2023/01/28 11:55:41;;;;;;;296.55;281.13;;;4.40;99.90;;;;;;5029579;28;20368;-60
2023/01/28 11:58:45;;;;;;;312.20;296.13;;;4.50;99.90;;;;;;5027998;28;20379;-60
2023/01/28 12:01:36;;;;;;;314.13;298.33;;;4.40;99.90;;;;;;5024961;28;20695;-60
2023/01/28 12:04:06;;;;;;;308.17;292.43;;;4.30;99.90;;;;;;5027491;28;20383;-60
2023/01/28 12:06:45;;;;;;;294.77;279.58;;;4.30;99.90;;;;;;5025558;28;20438;-61
2023/01/28 12:09:42;;;;;;;288.98;274.10;;;4.40;99.90;;;;;;5023270;28;20473;-61
2023/01/28 12:12:38;;;;;;;293.45;278.52;;;4.60;99.90;;;;;;5019261;28;20803;-60
2023/01/28 12:15:22;;;;;;;251.23;238.53;;;4.60;99.90;;;;;;5021388;28;20558;-60
2023/01/28 12:18:07;;;;;;;282.63;268.40;;;4.50;99.90;;;;;;5021020;28;20383;-59
2023/01/28 12:20:45;;;;;;;298.27;282.92;;;4.60;99.90;;;;;;5020801;28;21006;-59
2023/01/28 12:23:31;;;;;;;296.92;281.52;;;4.50;99.90;;;;;;5022698;28;20455;-60
2023/01/28 12:26:25;;;;;;;385.77;364.88;;;4.30;99.90;;;;;;5019102;28;20429;-60
2023/01/28 12:29:00;;;;;;;289.65;274.27;;;4.70;99.90;;;;;;5020897;28;20378;-61
2023/01/28 12:31:36;;;;;;;235.88;223.88;;;5.00;99.90;;;;;;5018861;28;20426;-60
2023/01/28 12:34:33;;;;;;;243.15;230.88;;;4.90;99.90;;;;;;5018843;28;20422;-60
2023/01/28 12:37:14;;;;;;;215.93;205.00;;;4.70;99.90;;;;;;5017128;28;20625;-61
2023/01/28 12:39:51;;;;;;;232.60;220.45;;;4.50;99.90;;;;;;5018261;28;20441;-60
2023/01/28 12:42:37;;;;;;;236.60;224.75;;;4.50;99.90;;;;;;5018302;28;20853;-60
2023/01/28 12:45:23;;;;;;;249.25;236.85;;;4.60;99.90;;;;;;5020223;28;20403;-61
2023/01/28 12:47:59;;;;;;;244.95;232.85;;;4.90;99.90;;;;;;5023075;28;20411;-61
2023/01/28 12:50:35;;;;;;;253.90;241.02;;;5.20;99.90;;;;;;5026881;28;20429;-60
2023/01/28 12:53:18;;;;;;;266.55;253.10;;;5.30;99.90;;;;;;5025565;28;20383;-61
2023/01/28 12:55:48;;;;;;;255.10;242.38;;;5.20;99.90;;;;;;5024183;28;20510;-61
2023/01/28 12:58:23;;;;;;;238.30;226.30;;;4.90;99.90;;;;;;5021600;28;20421;-59
2023/01/28 13:00:59;;;;;;;244.00;231.85;;;4.60;99.90;;;;;;5020332;28;20470;-59
2023/01/28 13:03:40;;;;;;;255.15;242.38;;;4.40;99.90;;;;;;5021140;28;20478;-59
2023/01/28 13:06:14;;;;;;;279.95;265.70;;;4.30;99.90;;;;;;5021019;28;20706;-59